RYR653Z EPWR-LDZD
Flight info
| Callsign | RYR653Z |
|---|---|
| Flight time | 1h 11m |
| Altitude | 37000 |
| Route | PEKOT L616 DESEN DCT MIKOV/N0438F380 DCT DARZA/N0431F370 DCT KULEN DCT KUDUL |
| Aircraft | B738/M-SDE3FGILRWY/SB1 |
Departure
| Time | 2026-04-28 21:47 |
|---|---|
| Airport | Copernicus Wrocław Airport (EPWR) |
Arrival
| Time | 2026-04-28 22:58 |
|---|---|
| Airport | Zadar Airport (LDZD) |
| Time | Latitude | Longitude | Altitude | Speed | Heading |
|---|---|---|---|---|---|
| 2026-04-28 21:29 | 51.10899 | 16.87882 | 402 ft | 0 kts | 25° |
| 2026-04-28 21:38 | 51.10877 | 16.87866 | 401 ft | 4 kts | 26° |
| 2026-04-28 21:39 | 51.10858 | 16.87851 | 399 ft | 4 kts | 18° |
| 2026-04-28 21:39 | 51.10836 | 16.87849 | 401 ft | 4 kts | 317° |
| 2026-04-28 21:39 | 51.10829 | 16.87862 | 401 ft | 2 kts | 296° |
| 2026-04-28 21:39 | 51.10841 | 16.87839 | 398 ft | 4 kts | 332° |
| 2026-04-28 21:40 | 51.10853 | 16.87846 | 398 ft | 0 kts | 25° |
| 2026-04-28 21:41 | 51.10859 | 16.87844 | 398 ft | 2 kts | 335° |
| 2026-04-28 21:42 | 51.10861 | 16.87799 | 401 ft | 8 kts | 273° |
| 2026-04-28 21:42 | 51.10886 | 16.87677 | 400 ft | 13 kts | 295° |
| 2026-04-28 21:42 | 51.10925 | 16.87546 | 402 ft | 11 kts | 296° |
| 2026-04-28 21:42 | 51.10950 | 16.87446 | 403 ft | 8 kts | 265° |
| 2026-04-28 21:43 | 51.10912 | 16.87393 | 402 ft | 7 kts | 206° |
| 2026-04-28 21:43 | 51.10866 | 16.87358 | 402 ft | 7 kts | 206° |
| 2026-04-28 21:43 | 51.10821 | 16.87324 | 402 ft | 7 kts | 206° |
| 2026-04-28 21:43 | 51.10778 | 16.87290 | 402 ft | 7 kts | 206° |
| 2026-04-28 21:44 | 51.10736 | 16.87257 | 403 ft | 7 kts | 206° |
| 2026-04-28 21:44 | 51.10706 | 16.87205 | 403 ft | 7 kts | 256° |
| 2026-04-28 21:44 | 51.10718 | 16.87118 | 402 ft | 10 kts | 292° |
| 2026-04-28 21:44 | 51.10755 | 16.87001 | 401 ft | 14 kts | 298° |
| 2026-04-28 21:45 | 51.10799 | 16.86850 | 401 ft | 16 kts | 294° |
| 2026-04-28 21:45 | 51.10827 | 16.86713 | 401 ft | 11 kts | 267° |
| 2026-04-28 21:45 | 51.10836 | 16.86615 | 401 ft | 4 kts | 292° |
| 2026-04-28 21:45 | 51.10858 | 16.86626 | 397 ft | 5 kts | 69° |
| 2026-04-28 21:46 | 51.10852 | 16.86676 | 400 ft | 3 kts | 114° |
| 2026-04-28 21:46 | 51.10850 | 16.86682 | 401 ft | 0 kts | 115° |
| 2026-04-28 21:46 | 51.10829 | 16.86753 | 401 ft | 31 kts | 116° |
| 2026-04-28 21:46 | 51.10622 | 16.87426 | 402 ft | 102 kts | 116° |
| 2026-04-28 21:47 | 51.10216 | 16.88737 | 404 ft | 160 kts | 117° |
| 2026-04-28 21:47 | 51.09703 | 16.90335 | 1007 ft | 160 kts | 116° |
| 2026-04-28 21:47 | 51.09219 | 16.91917 | 1817 ft | 162 kts | 113° |
| 2026-04-28 21:47 | 51.08711 | 16.93711 | 2181 ft | 195 kts | 112° |
| 2026-04-28 21:48 | 51.07969 | 16.95599 | 2718 ft | 210 kts | 136° |
| 2026-04-28 21:48 | 51.06685 | 16.96787 | 3417 ft | 219 kts | 159° |
| 2026-04-28 21:48 | 51.05193 | 16.97559 | 4088 ft | 232 kts | 166° |
| 2026-04-28 21:48 | 51.03592 | 16.97334 | 4948 ft | 238 kts | 205° |
| 2026-04-28 21:49 | 51.02155 | 16.96016 | 5857 ft | 241 kts | 210° |
| 2026-04-28 21:49 | 51.00687 | 16.94662 | 6697 ft | 246 kts | 210° |
| 2026-04-28 21:49 | 50.99188 | 16.93303 | 7518 ft | 250 kts | 210° |
| 2026-04-28 21:49 | 50.97626 | 16.92032 | 8343 ft | 254 kts | 208° |
| 2026-04-28 21:50 | 50.96017 | 16.90800 | 9174 ft | 259 kts | 208° |
| 2026-04-28 21:50 | 50.94382 | 16.89552 | 10000 ft | 263 kts | 209° |
| 2026-04-28 21:50 | 50.92722 | 16.88280 | 10779 ft | 267 kts | 210° |
| 2026-04-28 21:50 | 50.91042 | 16.86997 | 11575 ft | 269 kts | 208° |
| 2026-04-28 21:51 | 50.89195 | 16.86220 | 12187 ft | 286 kts | 189° |
| 2026-04-28 21:51 | 50.87115 | 16.85928 | 12395 ft | 313 kts | 186° |
| 2026-04-28 21:51 | 50.84849 | 16.85694 | 12626 ft | 339 kts | 186° |
| 2026-04-28 21:51 | 50.82428 | 16.85458 | 13026 ft | 356 kts | 186° |
| 2026-04-28 21:52 | 50.79941 | 16.85210 | 13839 ft | 359 kts | 186° |
| 2026-04-28 21:52 | 50.77434 | 16.84949 | 14621 ft | 363 kts | 186° |
| 2026-04-28 21:52 | 50.74900 | 16.84672 | 15329 ft | 367 kts | 187° |
| 2026-04-28 21:52 | 50.72338 | 16.84381 | 16059 ft | 371 kts | 187° |
| 2026-04-28 21:53 | 50.69747 | 16.84080 | 16796 ft | 375 kts | 187° |
| 2026-04-28 21:53 | 50.67128 | 16.83773 | 17524 ft | 379 kts | 187° |
| 2026-04-28 21:53 | 50.64482 | 16.83459 | 18247 ft | 383 kts | 187° |
| 2026-04-28 21:53 | 50.61809 | 16.83141 | 18904 ft | 387 kts | 187° |
| 2026-04-28 21:54 | 50.59144 | 16.82824 | 19507 ft | 391 kts | 187° |
| 2026-04-28 21:54 | 50.56415 | 16.82498 | 20093 ft | 396 kts | 188° |
| 2026-04-28 21:54 | 50.53658 | 16.82170 | 20686 ft | 399 kts | 188° |
| 2026-04-28 21:54 | 50.50876 | 16.81839 | 21302 ft | 403 kts | 188° |
| 2026-04-28 21:55 | 50.48065 | 16.81505 | 21898 ft | 407 kts | 188° |
| 2026-04-28 21:55 | 50.45228 | 16.81169 | 22493 ft | 411 kts | 188° |
| 2026-04-28 21:55 | 50.42359 | 16.80829 | 23079 ft | 415 kts | 188° |
| 2026-04-28 21:55 | 50.39467 | 16.80487 | 23641 ft | 419 kts | 188° |
| 2026-04-28 21:56 | 50.36550 | 16.80143 | 24158 ft | 422 kts | 188° |
| 2026-04-28 21:56 | 50.33613 | 16.79797 | 24657 ft | 423 kts | 189° |
| 2026-04-28 21:56 | 50.30679 | 16.79454 | 25239 ft | 424 kts | 189° |
| 2026-04-28 21:56 | 50.27728 | 16.79107 | 25717 ft | 427 kts | 189° |
| 2026-04-28 21:57 | 50.24756 | 16.78759 | 26164 ft | 430 kts | 189° |
| 2026-04-28 21:57 | 50.21762 | 16.78406 | 26623 ft | 433 kts | 189° |
| 2026-04-28 21:57 | 50.18751 | 16.78052 | 27088 ft | 435 kts | 190° |
| 2026-04-28 21:57 | 50.15718 | 16.77697 | 27561 ft | 438 kts | 190° |
| 2026-04-28 21:58 | 50.12672 | 16.77341 | 28007 ft | 440 kts | 190° |
| 2026-04-28 21:58 | 50.09612 | 16.76983 | 28406 ft | 443 kts | 190° |
| 2026-04-28 21:58 | 50.06534 | 16.76625 | 28845 ft | 445 kts | 190° |
| 2026-04-28 21:58 | 50.03438 | 16.76264 | 29261 ft | 447 kts | 190° |
| 2026-04-28 21:59 | 50.00328 | 16.75903 | 29670 ft | 450 kts | 190° |
| 2026-04-28 21:59 | 49.97200 | 16.75539 | 30045 ft | 452 kts | 190° |
| 2026-04-28 21:59 | 49.94048 | 16.75174 | 30406 ft | 455 kts | 190° |
| 2026-04-28 22:00 | 49.87703 | 16.74440 | 30973 ft | 460 kts | 190° |
| 2026-04-28 22:00 | 49.84511 | 16.74071 | 31264 ft | 462 kts | 190° |
| 2026-04-28 22:00 | 49.81293 | 16.73699 | 31534 ft | 465 kts | 191° |
| 2026-04-28 22:00 | 49.78061 | 16.73327 | 31830 ft | 466 kts | 191° |
| 2026-04-28 22:01 | 49.74826 | 16.72956 | 32212 ft | 466 kts | 191° |
| 2026-04-28 22:01 | 49.71604 | 16.72589 | 32639 ft | 464 kts | 191° |
| 2026-04-28 22:01 | 49.68387 | 16.72223 | 33005 ft | 464 kts | 191° |
| 2026-04-28 22:01 | 49.65161 | 16.71853 | 33271 ft | 464 kts | 191° |
| 2026-04-28 22:02 | 49.61939 | 16.71483 | 33551 ft | 466 kts | 191° |
| 2026-04-28 22:02 | 49.58703 | 16.71113 | 33896 ft | 466 kts | 192° |
| 2026-04-28 22:02 | 49.55472 | 16.70744 | 34279 ft | 465 kts | 192° |
| 2026-04-28 22:02 | 49.52253 | 16.70379 | 34575 ft | 464 kts | 191° |
| 2026-04-28 22:03 | 49.49024 | 16.70011 | 34820 ft | 466 kts | 191° |
| 2026-04-28 22:03 | 49.45791 | 16.69643 | 35061 ft | 467 kts | 191° |
| 2026-04-28 22:03 | 49.42551 | 16.69275 | 35295 ft | 467 kts | 192° |
| 2026-04-28 22:03 | 49.39312 | 16.68908 | 35571 ft | 466 kts | 191° |
| 2026-04-28 22:04 | 49.36077 | 16.68542 | 35833 ft | 467 kts | 191° |
| 2026-04-28 22:04 | 49.32838 | 16.68175 | 36074 ft | 467 kts | 191° |
| 2026-04-28 22:04 | 49.29601 | 16.67810 | 36378 ft | 466 kts | 191° |
| 2026-04-28 22:04 | 49.26364 | 16.67446 | 36658 ft | 466 kts | 190° |
| 2026-04-28 22:05 | 49.23136 | 16.67083 | 36900 ft | 466 kts | 190° |
| 2026-04-28 22:05 | 49.19900 | 16.66718 | 37077 ft | 466 kts | 191° |
| 2026-04-28 22:05 | 49.16676 | 16.66355 | 37427 ft | 463 kts | 190° |
| 2026-04-28 22:05 | 49.13463 | 16.65996 | 37693 ft | 463 kts | 190° |
| 2026-04-28 22:06 | 49.10244 | 16.65635 | 37881 ft | 464 kts | 190° |
| 2026-04-28 22:06 | 49.07020 | 16.65273 | 38068 ft | 465 kts | 190° |
| 2026-04-28 22:06 | 49.04879 | 16.65033 | 38213 ft | 465 kts | 189° |
| 2026-04-28 22:07 | 48.98389 | 16.64307 | 38217 ft | 469 kts | 189° |
| 2026-04-28 22:07 | 48.91904 | 16.63589 | 38225 ft | 465 kts | 189° |
| 2026-04-28 22:08 | 48.85470 | 16.62874 | 38228 ft | 462 kts | 190° |
| 2026-04-28 22:08 | 48.79084 | 16.62071 | 38212 ft | 457 kts | 195° |
| 2026-04-28 22:09 | 48.73089 | 16.59467 | 38217 ft | 445 kts | 206° |
| 2026-04-28 22:09 | 48.67254 | 16.56324 | 38218 ft | 445 kts | 206° |
| 2026-04-28 22:10 | 48.61404 | 16.53203 | 38220 ft | 447 kts | 206° |
| 2026-04-28 22:10 | 48.55550 | 16.50136 | 38220 ft | 449 kts | 205° |
| 2026-04-28 22:11 | 48.49629 | 16.47065 | 38202 ft | 451 kts | 206° |
| 2026-04-28 22:11 | 48.43686 | 16.43994 | 38204 ft | 452 kts | 206° |
| 2026-04-28 22:12 | 48.37728 | 16.40923 | 38206 ft | 453 kts | 206° |
| 2026-04-28 22:12 | 48.31756 | 16.37851 | 38195 ft | 453 kts | 206° |
| 2026-04-28 22:13 | 48.25799 | 16.34795 | 38204 ft | 452 kts | 206° |
| 2026-04-28 22:13 | 48.19849 | 16.31750 | 38209 ft | 451 kts | 206° |
| 2026-04-28 22:14 | 48.13911 | 16.28717 | 38174 ft | 450 kts | 206° |
| 2026-04-28 22:14 | 48.07985 | 16.25698 | 38202 ft | 449 kts | 206° |
| 2026-04-28 22:15 | 48.02070 | 16.22691 | 38205 ft | 449 kts | 206° |
| 2026-04-28 22:15 | 47.96158 | 16.19692 | 38195 ft | 449 kts | 206° |
| 2026-04-28 22:16 | 47.90250 | 16.16705 | 38194 ft | 448 kts | 206° |
| 2026-04-28 22:16 | 47.84347 | 16.13726 | 38196 ft | 448 kts | 206° |
| 2026-04-28 22:17 | 47.78454 | 16.10758 | 38204 ft | 448 kts | 206° |
| 2026-04-28 22:17 | 47.72549 | 16.07793 | 38201 ft | 448 kts | 206° |
| 2026-04-28 22:18 | 47.66641 | 16.04834 | 38205 ft | 448 kts | 206° |
| 2026-04-28 22:18 | 47.60762 | 16.01895 | 38201 ft | 449 kts | 206° |
| 2026-04-28 22:19 | 47.54833 | 15.98939 | 38185 ft | 450 kts | 206° |
| 2026-04-28 22:19 | 47.48912 | 15.95995 | 38196 ft | 448 kts | 206° |
| 2026-04-28 22:20 | 47.43004 | 15.93065 | 38186 ft | 447 kts | 206° |
| 2026-04-28 22:20 | 47.37119 | 15.90153 | 38177 ft | 445 kts | 206° |
| 2026-04-28 22:21 | 47.31253 | 15.87263 | 38168 ft | 443 kts | 206° |
| 2026-04-28 22:21 | 47.25423 | 15.84389 | 38170 ft | 441 kts | 206° |
| 2026-04-28 22:22 | 47.19619 | 15.81533 | 38169 ft | 439 kts | 206° |
| 2026-04-28 22:22 | 47.13844 | 15.78698 | 38171 ft | 437 kts | 206° |
| 2026-04-28 22:23 | 47.08090 | 15.75883 | 38166 ft | 435 kts | 206° |
| 2026-04-28 22:23 | 47.02343 | 15.73075 | 38179 ft | 435 kts | 206° |
| 2026-04-28 22:24 | 46.96590 | 15.70271 | 38183 ft | 436 kts | 206° |
| 2026-04-28 22:24 | 46.90817 | 15.67465 | 38159 ft | 438 kts | 206° |
| 2026-04-28 22:25 | 46.85028 | 15.64656 | 38175 ft | 440 kts | 206° |
| 2026-04-28 22:25 | 46.79244 | 15.61857 | 38178 ft | 442 kts | 206° |
| 2026-04-28 22:26 | 46.73392 | 15.59032 | 38177 ft | 444 kts | 206° |
| 2026-04-28 22:26 | 46.67517 | 15.56203 | 38180 ft | 446 kts | 205° |
| 2026-04-28 22:27 | 46.61615 | 15.53368 | 38170 ft | 447 kts | 205° |
| 2026-04-28 22:27 | 46.55702 | 15.50536 | 38187 ft | 447 kts | 206° |
| 2026-04-28 22:28 | 46.49812 | 15.47718 | 38060 ft | 443 kts | 205° |
| 2026-04-28 22:28 | 46.46876 | 15.46317 | 37775 ft | 443 kts | 205° |
| 2026-04-28 22:28 | 46.43958 | 15.44928 | 37493 ft | 440 kts | 206° |
| 2026-04-28 22:28 | 46.41063 | 15.43553 | 37208 ft | 437 kts | 206° |
| 2026-04-28 22:29 | 46.38186 | 15.42187 | 36944 ft | 434 kts | 206° |
| 2026-04-28 22:29 | 46.35320 | 15.40825 | 36685 ft | 433 kts | 206° |
| 2026-04-28 22:29 | 46.32465 | 15.39468 | 36395 ft | 431 kts | 206° |
| 2026-04-28 22:29 | 46.29616 | 15.38116 | 36143 ft | 430 kts | 206° |
| 2026-04-28 22:30 | 46.26783 | 15.36772 | 35893 ft | 428 kts | 206° |
| 2026-04-28 22:30 | 46.23949 | 15.35430 | 35636 ft | 427 kts | 206° |
| 2026-04-28 22:30 | 46.21127 | 15.34095 | 35390 ft | 426 kts | 206° |
| 2026-04-28 22:30 | 46.18310 | 15.32764 | 35138 ft | 425 kts | 207° |
| 2026-04-28 22:31 | 46.15507 | 15.31442 | 34893 ft | 424 kts | 207° |
| 2026-04-28 22:31 | 46.12710 | 15.30125 | 34634 ft | 422 kts | 206° |
| 2026-04-28 22:31 | 46.09926 | 15.28816 | 34389 ft | 420 kts | 206° |
| 2026-04-28 22:31 | 46.07152 | 15.27512 | 34149 ft | 418 kts | 207° |
| 2026-04-28 22:32 | 46.04391 | 15.26215 | 33873 ft | 416 kts | 206° |
| 2026-04-28 22:32 | 46.01639 | 15.24924 | 33597 ft | 414 kts | 206° |
| 2026-04-28 22:32 | 45.98914 | 15.23647 | 33327 ft | 411 kts | 206° |
| 2026-04-28 22:32 | 45.96203 | 15.22378 | 33055 ft | 409 kts | 206° |
| 2026-04-28 22:33 | 45.93510 | 15.21118 | 32754 ft | 406 kts | 206° |
| 2026-04-28 22:33 | 45.90827 | 15.19864 | 32489 ft | 404 kts | 206° |
| 2026-04-28 22:33 | 45.88165 | 15.18621 | 32232 ft | 402 kts | 206° |
| 2026-04-28 22:33 | 45.85512 | 15.17383 | 31973 ft | 400 kts | 206° |
| 2026-04-28 22:34 | 45.82872 | 15.16151 | 31716 ft | 398 kts | 206° |
| 2026-04-28 22:34 | 45.80244 | 15.14928 | 31465 ft | 396 kts | 205° |
| 2026-04-28 22:34 | 45.77636 | 15.13716 | 31091 ft | 393 kts | 205° |
| 2026-04-28 22:34 | 45.75076 | 15.12527 | 30747 ft | 391 kts | 205° |
| 2026-04-28 22:35 | 45.72499 | 15.11330 | 30396 ft | 388 kts | 205° |
| 2026-04-28 22:35 | 45.69937 | 15.10141 | 30014 ft | 386 kts | 205° |
| 2026-04-28 22:35 | 45.67354 | 15.08945 | 29603 ft | 383 kts | 205° |
| 2026-04-28 22:35 | 45.64832 | 15.07779 | 29258 ft | 379 kts | 205° |
| 2026-04-28 22:36 | 45.62333 | 15.06623 | 28873 ft | 376 kts | 205° |
| 2026-04-28 22:36 | 45.59887 | 15.05493 | 28494 ft | 374 kts | 205° |
| 2026-04-28 22:36 | 45.57420 | 15.04352 | 28217 ft | 371 kts | 205° |
| 2026-04-28 22:36 | 45.54921 | 15.03192 | 27951 ft | 387 kts | 204° |
| 2026-04-28 22:37 | 45.52301 | 15.01976 | 27728 ft | 406 kts | 204° |
| 2026-04-28 22:37 | 45.49484 | 15.00984 | 27477 ft | 427 kts | 194° |
| 2026-04-28 22:37 | 45.46487 | 15.00726 | 27211 ft | 435 kts | 184° |
| 2026-04-28 22:37 | 45.43471 | 15.00920 | 26965 ft | 432 kts | 182° |
| 2026-04-28 22:38 | 45.40477 | 15.01185 | 26699 ft | 430 kts | 181° |
| 2026-04-28 22:38 | 45.37505 | 15.01459 | 26433 ft | 427 kts | 181° |
| 2026-04-28 22:38 | 45.34550 | 15.01718 | 26158 ft | 424 kts | 181° |
| 2026-04-28 22:38 | 45.31618 | 15.01956 | 25921 ft | 422 kts | 182° |
| 2026-04-28 22:39 | 45.28696 | 15.02178 | 25633 ft | 418 kts | 182° |
| 2026-04-28 22:39 | 45.25800 | 15.02391 | 25203 ft | 415 kts | 182° |
| 2026-04-28 22:39 | 45.22923 | 15.02596 | 24753 ft | 412 kts | 182° |
| 2026-04-28 22:39 | 45.20072 | 15.02797 | 24322 ft | 409 kts | 182° |
| 2026-04-28 22:40 | 45.17240 | 15.02995 | 23870 ft | 407 kts | 182° |
| 2026-04-28 22:40 | 45.14419 | 15.03192 | 23350 ft | 405 kts | 182° |
| 2026-04-28 22:40 | 45.11612 | 15.03389 | 22852 ft | 402 kts | 182° |
| 2026-04-28 22:40 | 45.08833 | 15.03584 | 22390 ft | 398 kts | 181° |
| 2026-04-28 22:41 | 45.06081 | 15.03778 | 21948 ft | 394 kts | 181° |
| 2026-04-28 22:41 | 45.03352 | 15.03970 | 21493 ft | 391 kts | 181° |
| 2026-04-28 22:41 | 45.00644 | 15.04158 | 21060 ft | 388 kts | 181° |
| 2026-04-28 22:41 | 44.97994 | 15.04344 | 20623 ft | 385 kts | 181° |
| 2026-04-28 22:42 | 44.95324 | 15.04531 | 20185 ft | 382 kts | 181° |
| 2026-04-28 22:42 | 44.92676 | 15.04716 | 19749 ft | 380 kts | 181° |
| 2026-04-28 22:42 | 44.90045 | 15.04900 | 19323 ft | 378 kts | 181° |
| 2026-04-28 22:42 | 44.87429 | 15.05082 | 18906 ft | 375 kts | 181° |
| 2026-04-28 22:43 | 44.84826 | 15.05263 | 18457 ft | 374 kts | 181° |
| 2026-04-28 22:43 | 44.82231 | 15.05443 | 18002 ft | 373 kts | 181° |
| 2026-04-28 22:43 | 44.79651 | 15.05622 | 17538 ft | 370 kts | 181° |
| 2026-04-28 22:43 | 44.77093 | 15.05800 | 17080 ft | 367 kts | 181° |
| 2026-04-28 22:44 | 44.74551 | 15.05977 | 16650 ft | 364 kts | 181° |
| 2026-04-28 22:44 | 44.72034 | 15.06152 | 16244 ft | 361 kts | 181° |
| 2026-04-28 22:44 | 44.69537 | 15.06328 | 15830 ft | 359 kts | 180° |
| 2026-04-28 22:44 | 44.67071 | 15.06864 | 15398 ft | 360 kts | 168° |
| 2026-04-28 22:45 | 44.64715 | 15.08060 | 15005 ft | 361 kts | 156° |
| 2026-04-28 22:45 | 44.62483 | 15.09660 | 14603 ft | 359 kts | 154° |
| 2026-04-28 22:45 | 44.60282 | 15.11303 | 14177 ft | 357 kts | 154° |
| 2026-04-28 22:45 | 44.58096 | 15.12941 | 13754 ft | 355 kts | 154° |
| 2026-04-28 22:46 | 44.55915 | 15.14565 | 13293 ft | 354 kts | 154° |
| 2026-04-28 22:46 | 44.53748 | 15.16165 | 12863 ft | 351 kts | 154° |
| 2026-04-28 22:46 | 44.51591 | 15.17748 | 12432 ft | 349 kts | 154° |
| 2026-04-28 22:46 | 44.49448 | 15.19314 | 12028 ft | 346 kts | 154° |
| 2026-04-28 22:47 | 44.47314 | 15.20869 | 11619 ft | 344 kts | 154° |
| 2026-04-28 22:47 | 44.45194 | 15.22412 | 11213 ft | 343 kts | 154° |
| 2026-04-28 22:47 | 44.43083 | 15.23946 | 10792 ft | 341 kts | 154° |
| 2026-04-28 22:47 | 44.41002 | 15.25457 | 10617 ft | 332 kts | 154° |
| 2026-04-28 22:48 | 44.38978 | 15.26925 | 10461 ft | 323 kts | 154° |
| 2026-04-28 22:48 | 44.37009 | 15.28354 | 10321 ft | 315 kts | 154° |
| 2026-04-28 22:48 | 44.35092 | 15.29743 | 10168 ft | 306 kts | 154° |
| 2026-04-28 22:48 | 44.33227 | 15.31092 | 10052 ft | 298 kts | 154° |
| 2026-04-28 22:49 | 44.31421 | 15.32399 | 9905 ft | 290 kts | 154° |
| 2026-04-28 22:49 | 44.29613 | 15.33703 | 9506 ft | 292 kts | 154° |
| 2026-04-28 22:49 | 44.27691 | 15.34502 | 9162 ft | 288 kts | 180° |
| 2026-04-28 22:49 | 44.25751 | 15.34007 | 8840 ft | 284 kts | 205° |
| 2026-04-28 22:50 | 44.24121 | 15.32571 | 8515 ft | 281 kts | 221° |
| 2026-04-28 22:50 | 44.22653 | 15.30779 | 8178 ft | 281 kts | 223° |
| 2026-04-28 22:50 | 44.21208 | 15.28952 | 7846 ft | 281 kts | 223° |
| 2026-04-28 22:50 | 44.19756 | 15.27116 | 7453 ft | 283 kts | 223° |
| 2026-04-28 22:51 | 44.18295 | 15.25283 | 7116 ft | 283 kts | 222° |
| 2026-04-28 22:51 | 44.16841 | 15.23470 | 6767 ft | 277 kts | 222° |
| 2026-04-28 22:51 | 44.15421 | 15.21710 | 6431 ft | 270 kts | 222° |
| 2026-04-28 22:51 | 44.14037 | 15.19999 | 6093 ft | 263 kts | 222° |
| 2026-04-28 22:52 | 44.12686 | 15.18333 | 5792 ft | 257 kts | 221° |
| 2026-04-28 22:52 | 44.11355 | 15.16693 | 5497 ft | 255 kts | 221° |
| 2026-04-28 22:52 | 44.10026 | 15.15059 | 5208 ft | 255 kts | 221° |
| 2026-04-28 22:52 | 44.08710 | 15.13443 | 4905 ft | 250 kts | 221° |
| 2026-04-28 22:53 | 44.07295 | 15.12066 | 4595 ft | 250 kts | 199° |
| 2026-04-28 22:53 | 44.05587 | 15.11864 | 4311 ft | 249 kts | 168° |
| 2026-04-28 22:53 | 44.04037 | 15.12869 | 4048 ft | 245 kts | 141° |
| 2026-04-28 22:53 | 44.02882 | 15.14464 | 3953 ft | 225 kts | 132° |
| 2026-04-28 22:54 | 44.01889 | 15.16043 | 3808 ft | 209 kts | 131° |
| 2026-04-28 22:54 | 44.00955 | 15.17535 | 3428 ft | 207 kts | 131° |
| 2026-04-28 22:54 | 44.00019 | 15.19017 | 3104 ft | 201 kts | 131° |
| 2026-04-28 22:54 | 43.99183 | 15.20521 | 2828 ft | 193 kts | 115° |
| 2026-04-28 22:55 | 43.99058 | 15.22299 | 2582 ft | 184 kts | 77° |
| 2026-04-28 22:55 | 43.99621 | 15.23823 | 2365 ft | 176 kts | 48° |
| 2026-04-28 22:55 | 44.00186 | 15.24595 | 2261 ft | 170 kts | 43° |
| 2026-04-28 22:55 | 44.01349 | 15.26020 | 2000 ft | 162 kts | 41° |
| 2026-04-28 22:56 | 44.01912 | 15.26700 | 1903 ft | 163 kts | 41° |
| 2026-04-28 22:56 | 44.02765 | 15.27741 | 1725 ft | 161 kts | 42° |
| 2026-04-28 22:56 | 44.03591 | 15.28758 | 1480 ft | 156 kts | 42° |
| 2026-04-28 22:56 | 44.04392 | 15.29746 | 1283 ft | 153 kts | 42° |
| 2026-04-28 22:57 | 44.05193 | 15.30734 | 1083 ft | 155 kts | 43° |
| 2026-04-28 22:57 | 44.05998 | 15.31727 | 893 ft | 155 kts | 43° |
| 2026-04-28 22:57 | 44.06803 | 15.32714 | 656 ft | 154 kts | 42° |
| 2026-04-28 22:57 | 44.07612 | 15.33701 | 420 ft | 154 kts | 42° |
| 2026-04-28 22:58 | 44.08395 | 15.34677 | 291 ft | 155 kts | 42° |
| 2026-04-28 22:58 | 44.09029 | 15.35458 | 288 ft | 78 kts | 41° |
| 2026-04-28 22:58 | 44.09227 | 15.35706 | 288 ft | 21 kts | 42° |
| 2026-04-28 22:58 | 44.09300 | 15.35725 | 292 ft | 10 kts | 321° |
| 2026-04-28 22:59 | 44.09344 | 15.35657 | 290 ft | 9 kts | 311° |
| 2026-04-28 22:59 | 44.09386 | 15.35593 | 291 ft | 8 kts | 313° |
| 2026-04-28 22:59 | 44.09429 | 15.35553 | 291 ft | 7 kts | 339° |
| 2026-04-28 22:59 | 44.09485 | 15.35548 | 289 ft | 10 kts | 0° |
| 2026-04-28 23:00 | 44.09533 | 15.35547 | 284 ft | 7 kts | 359° |
| 2026-04-28 23:00 | 44.09561 | 15.35530 | 286 ft | 4 kts | 303° |
| 2026-04-28 23:00 | 44.09563 | 15.35493 | 284 ft | 3 kts | 277° |
| 2026-04-28 23:00 | 44.09574 | 15.35468 | 285 ft | 3 kts | 313° |
| 2026-04-28 23:01 | 44.09591 | 15.35451 | 284 ft | 3 kts | 326° |
| 2026-04-28 23:01 | 44.09606 | 15.35437 | 287 ft | 1 kts | 326° |